sensor_id;sensor_type;location;lat;lon;timestamp;P1;durP1;ratioP1;P2;durP2;ratioP2
10383;SDS011;5238;43.508;4.980;2023-02-19T00:00:11;23.42;;;19.70;;
10383;SDS011;5238;43.508;4.980;2023-02-19T00:02:40;22.40;;;18.90;;
10383;SDS011;5238;43.508;4.980;2023-02-19T00:05:16;25.08;;;20.58;;
10383;SDS011;5238;43.508;4.980;2023-02-19T00:07:47;24.00;;;17.67;;
10383;SDS011;5238;43.508;4.980;2023-02-19T00:10:15;22.98;;;18.00;;
10383;SDS011;5238;43.508;4.980;2023-02-19T00:12:42;23.50;;;17.60;;
10383;SDS011;5238;43.508;4.980;2023-02-19T00:15:15;23.77;;;19.00;;
10383;SDS011;5238;43.508;4.980;2023-02-19T00:17:43;22.77;;;19.08;;
10383;SDS011;5238;43.508;4.980;2023-02-19T00:20:14;21.23;;;18.25;;
10383;SDS011;5238;43.508;4.980;2023-02-19T00:22:41;22.85;;;17.52;;
10383;SDS011;5238;43.508;4.980;2023-02-19T00:25:10;21.83;;;17.10;;
10383;SDS011;5238;43.508;4.980;2023-02-19T00:27:40;22.77;;;17.10;;
10383;SDS011;5238;43.508;4.980;2023-02-19T00:30:07;21.40;;;18.70;;
10383;SDS011;5238;43.508;4.980;2023-02-19T00:32:36;22.45;;;16.98;;
10383;SDS011;5238;43.508;4.980;2023-02-19T00:35:03;22.05;;;17.60;;
10383;SDS011;5238;43.508;4.980;2023-02-19T00:37:30;21.95;;;17.75;;
10383;SDS011;5238;43.508;4.980;2023-02-19T00:39:57;23.65;;;19.20;;
10383;SDS011;5238;43.508;4.980;2023-02-19T00:42:25;22.05;;;17.15;;
10383;SDS011;5238;43.508;4.980;2023-02-19T00:44:52;20.88;;;16.33;;
10383;SDS011;5238;43.508;4.980;2023-02-19T00:47:19;23.55;;;18.80;;
10383;SDS011;5238;43.508;4.980;2023-02-19T00:49:46;24.33;;;18.30;;
10383;SDS011;5238;43.508;4.980;2023-02-19T00:52:13;23.73;;;17.60;;
10383;SDS011;5238;43.508;4.980;2023-02-19T00:54:40;21.20;;;17.75;;
10383;SDS011;5238;43.508;4.980;2023-02-19T00:57:07;24.30;;;18.52;;
10383;SDS011;5238;43.508;4.980;2023-02-19T00:59:35;21.63;;;18.38;;
10383;SDS011;5238;43.508;4.980;2023-02-19T01:02:02;26.08;;;17.25;;
10383;SDS011;5238;43.508;4.980;2023-02-19T01:04:29;24.35;;;17.73;;
10383;SDS011;5238;43.508;4.980;2023-02-19T01:06:56;20.88;;;17.48;;
10383;SDS011;5238;43.508;4.980;2023-02-19T01:09:25;21.65;;;17.95;;
10383;SDS011;5238;43.508;4.980;2023-02-19T01:11:52;21.83;;;16.88;;
10383;SDS011;5238;43.508;4.980;2023-02-19T01:14:19;23.88;;;17.52;;
10383;SDS011;5238;43.508;4.980;2023-02-19T01:16:47;22.33;;;17.63;;
10383;SDS011;5238;43.508;4.980;2023-02-19T01:19:15;21.50;;;17.20;;
10383;SDS011;5238;43.508;4.980;2023-02-19T01:21:42;24.83;;;18.83;;
10383;SDS011;5238;43.508;4.980;2023-02-19T01:24:09;19.35;;;16.00;;
10383;SDS011;5238;43.508;4.980;2023-02-19T01:26:36;20.63;;;16.60;;
10383;SDS011;5238;43.508;4.980;2023-02-19T01:29:05;19.98;;;17.67;;
10383;SDS011;5238;43.508;4.980;2023-02-19T01:31:32;22.35;;;18.10;;
10383;SDS011;5238;43.508;4.980;2023-02-19T01:34:04;23.02;;;17.58;;
10383;SDS011;5238;43.508;4.980;2023-02-19T01:36:31;23.92;;;17.42;;
10383;SDS011;5238;43.508;4.980;2023-02-19T01:39:01;22.40;;;17.27;;
10383;SDS011;5238;43.508;4.980;2023-02-19T01:41:32;22.85;;;18.05;;
10383;SDS011;5238;43.508;4.980;2023-02-19T01:44:03;23.02;;;18.35;;
10383;SDS011;5238;43.508;4.980;2023-02-19T01:46:33;23.27;;;18.23;;
10383;SDS011;5238;43.508;4.980;2023-02-19T01:49:03;20.80;;;18.02;;
10383;SDS011;5238;43.508;4.980;2023-02-19T01:51:34;24.27;;;19.13;;
10383;SDS011;5238;43.508;4.980;2023-02-19T01:54:04;22.70;;;18.15;;
10383;SDS011;5238;43.508;4.980;2023-02-19T01:56:35;23.70;;;16.65;;
10383;SDS011;5238;43.508;4.980;2023-02-19T01:59:08;21.83;;;15.88;;
10383;SDS011;5238;43.508;4.980;2023-02-19T02:01:36;18.65;;;16.10;;
10383;SDS011;5238;43.508;4.980;2023-02-19T02:04:07;20.85;;;16.30;;
10383;SDS011;5238;43.508;4.980;2023-02-19T02:06:38;22.40;;;16.30;;
10383;SDS011;5238;43.508;4.980;2023-02-19T02:09:10;20.00;;;15.27;;
10383;SDS011;5238;43.508;4.980;2023-02-19T02:11:56;20.92;;;16.08;;
10383;SDS011;5238;43.508;4.980;2023-02-19T02:14:23;18.77;;;15.13;;
10383;SDS011;5238;43.508;4.980;2023-02-19T02:16:56;20.20;;;15.73;;
10383;SDS011;5238;43.508;4.980;2023-02-19T02:19:41;18.85;;;16.08;;
10383;SDS011;5238;43.508;4.980;2023-02-19T02:22:27;21.58;;;15.93;;
10383;SDS011;5238;43.508;4.980;2023-02-19T02:25:20;19.38;;;15.75;;
10383;SDS011;5238;43.508;4.980;2023-02-19T02:28:13;20.63;;;15.35;;
10383;SDS011;5238;43.508;4.980;2023-02-19T02:30:49;19.70;;;16.05;;
10383;SDS011;5238;43.508;4.980;2023-02-19T02:33:22;22.90;;;16.98;;
10383;SDS011;5238;43.508;4.980;2023-02-19T02:35:54;22.83;;;16.83;;
10383;SDS011;5238;43.508;4.980;2023-02-19T02:38:26;19.25;;;16.67;;
10383;SDS011;5238;43.508;4.980;2023-02-19T02:40:56;19.10;;;16.10;;
10383;SDS011;5238;43.508;4.980;2023-02-19T02:43:25;23.60;;;16.88;;
10383;SDS011;5238;43.508;4.980;2023-02-19T02:45:56;21.35;;;16.88;;
10383;SDS011;5238;43.508;4.980;2023-02-19T02:48:25;20.70;;;15.98;;
10383;SDS011;5238;43.508;4.980;2023-02-19T02:50:59;20.50;;;16.80;;
10383;SDS011;5238;43.508;4.980;2023-02-19T02:53:31;21.67;;;17.17;;
10383;SDS011;5238;43.508;4.980;2023-02-19T02:56:21;21.67;;;16.83;;
10383;SDS011;5238;43.508;4.980;2023-02-19T02:58:52;20.17;;;17.48;;
10383;SDS011;5238;43.508;4.980;2023-02-19T03:01:24;21.35;;;17.42;;
10383;SDS011;5238;43.508;4.980;2023-02-19T03:04:14;22.00;;;17.27;;
10383;SDS011;5238;43.508;4.980;2023-02-19T03:06:47;19.60;;;16.42;;
10383;SDS011;5238;43.508;4.980;2023-02-19T03:09:17;20.35;;;16.65;;
10383;SDS011;5238;43.508;4.980;2023-02-19T03:11:54;19.33;;;16.20;;
10383;SDS011;5238;43.508;4.980;2023-02-19T03:14:43;20.13;;;15.70;;
10383;SDS011;5238;43.508;4.980;2023-02-19T03:17:35;22.35;;;15.52;;
10383;SDS011;5238;43.508;4.980;2023-02-19T03:20:24;20.05;;;16.33;;
10383;SDS011;5238;43.508;4.980;2023-02-19T03:22:54;21.50;;;15.60;;
10383;SDS011;5238;43.508;4.980;2023-02-19T03:25:25;21.83;;;16.80;;
10383;SDS011;5238;43.508;4.980;2023-02-19T03:28:31;18.90;;;15.85;;
10383;SDS011;5238;43.508;4.980;2023-02-19T03:31:18;21.48;;;16.20;;
10383;SDS011;5238;43.508;4.980;2023-02-19T03:33:50;20.98;;;16.38;;
10383;SDS011;5238;43.508;4.980;2023-02-19T03:36:22;22.80;;;16.50;;
10383;SDS011;5238;43.508;4.980;2023-02-19T03:38:53;20.13;;;15.77;;
10383;SDS011;5238;43.508;4.980;2023-02-19T03:41:29;21.15;;;15.43;;
10383;SDS011;5238;43.508;4.980;2023-02-19T03:44:02;21.67;;;15.77;;
10383;SDS011;5238;43.508;4.980;2023-02-19T03:46:41;25.08;;;18.45;;
10383;SDS011;5238;43.508;4.980;2023-02-19T03:49:14;19.88;;;17.17;;
10383;SDS011;5238;43.508;4.980;2023-02-19T03:51:49;22.42;;;17.10;;
10383;SDS011;5238;43.508;4.980;2023-02-19T03:54:26;21.60;;;16.50;;
10383;SDS011;5238;43.508;4.980;2023-02-19T03:57:01;22.27;;;16.98;;
10383;SDS011;5238;43.508;4.980;2023-02-19T03:59:35;21.58;;;16.60;;
10383;SDS011;5238;43.508;4.980;2023-02-19T04:02:09;19.02;;;16.52;;
10383;SDS011;5238;43.508;4.980;2023-02-19T04:04:42;22.85;;;17.80;;
10383;SDS011;5238;43.508;4.980;2023-02-19T04:07:18;21.13;;;17.17;;
10383;SDS011;5238;43.508;4.980;2023-02-19T04:09:47;20.38;;;17.80;;
10383;SDS011;5238;43.508;4.980;2023-02-19T04:12:17;23.63;;;17.50;;
10383;SDS011;5238;43.508;4.980;2023-02-19T04:14:48;24.45;;;17.30;;
10383;SDS011;5238;43.508;4.980;2023-02-19T04:17:20;23.58;;;17.67;;
10383;SDS011;5238;43.508;4.980;2023-02-19T04:19:53;23.10;;;17.83;;
10383;SDS011;5238;43.508;4.980;2023-02-19T04:22:22;27.08;;;19.77;;
10383;SDS011;5238;43.508;4.980;2023-02-19T04:24:51;21.48;;;17.13;;
10383;SDS011;5238;43.508;4.980;2023-02-19T04:27:23;23.00;;;17.75;;
10383;SDS011;5238;43.508;4.980;2023-02-19T04:29:53;23.25;;;17.73;;
10383;SDS011;5238;43.508;4.980;2023-02-19T04:32:20;24.67;;;17.92;;
10383;SDS011;5238;43.508;4.980;2023-02-19T04:34:48;25.98;;;18.90;;
10383;SDS011;5238;43.508;4.980;2023-02-19T04:37:24;23.85;;;17.63;;
10383;SDS011;5238;43.508;4.980;2023-02-19T04:39:52;22.13;;;18.02;;
10383;SDS011;5238;43.508;4.980;2023-02-19T04:42:19;25.33;;;17.95;;
10383;SDS011;5238;43.508;4.980;2023-02-19T04:44:49;25.40;;;18.95;;
10383;SDS011;5238;43.508;4.980;2023-02-19T04:47:18;23.52;;;18.15;;
10383;SDS011;5238;43.508;4.980;2023-02-19T04:49:48;28.50;;;17.90;;
10383;SDS011;5238;43.508;4.980;2023-02-19T04:52:15;23.85;;;17.67;;
10383;SDS011;5238;43.508;4.980;2023-02-19T04:54:44;29.77;;;19.60;;
10383;SDS011;5238;43.508;4.980;2023-02-19T04:57:11;24.70;;;18.13;;
10383;SDS011;5238;43.508;4.980;2023-02-19T04:59:38;27.83;;;18.98;;
10383;SDS011;5238;43.508;4.980;2023-02-19T05:02:09;24.67;;;18.52;;
10383;SDS011;5238;43.508;4.980;2023-02-19T05:04:38;24.80;;;18.60;;
10383;SDS011;5238;43.508;4.980;2023-02-19T05:07:08;27.38;;;19.65;;
10383;SDS011;5238;43.508;4.980;2023-02-19T05:09:35;23.80;;;18.45;;
10383;SDS011;5238;43.508;4.980;2023-02-19T05:12:04;27.15;;;18.50;;
10383;SDS011;5238;43.508;4.980;2023-02-19T05:14:31;24.50;;;18.85;;
10383;SDS011;5238;43.508;4.980;2023-02-19T05:16:58;27.95;;;18.92;;
10383;SDS011;5238;43.508;4.980;2023-02-19T05:19:25;22.90;;;17.98;;
10383;SDS011;5238;43.508;4.980;2023-02-19T05:21:52;24.67;;;18.40;;
10383;SDS011;5238;43.508;4.980;2023-02-19T05:24:20;29.20;;;18.27;;
10383;SDS011;5238;43.508;4.980;2023-02-19T05:26:51;26.10;;;18.48;;
10383;SDS011;5238;43.508;4.980;2023-02-19T05:29:21;22.92;;;17.00;;
10383;SDS011;5238;43.508;4.980;2023-02-19T05:31:49;24.75;;;17.60;;
10383;SDS011;5238;43.508;4.980;2023-02-19T05:34:19;23.48;;;17.77;;
10383;SDS011;5238;43.508;4.980;2023-02-19T05:36:48;28.35;;;19.63;;
10383;SDS011;5238;43.508;4.980;2023-02-19T05:39:15;25.50;;;19.05;;
10383;SDS011;5238;43.508;4.980;2023-02-19T05:41:42;28.08;;;19.80;;
10383;SDS011;5238;43.508;4.980;2023-02-19T05:44:09;27.58;;;19.98;;
10383;SDS011;5238;43.508;4.980;2023-02-19T05:46:40;24.58;;;19.10;;
10383;SDS011;5238;43.508;4.980;2023-02-19T05:49:09;22.08;;;17.70;;
10383;SDS011;5238;43.508;4.980;2023-02-19T05:51:37;22.65;;;17.98;;
10383;SDS011;5238;43.508;4.980;2023-02-19T05:54:04;22.85;;;18.52;;
10383;SDS011;5238;43.508;4.980;2023-02-19T05:56:33;23.50;;;19.08;;
10383;SDS011;5238;43.508;4.980;2023-02-19T05:59:05;24.75;;;16.50;;
10383;SDS011;5238;43.508;4.980;2023-02-19T06:01:43;21.25;;;16.50;;
10383;SDS011;5238;43.508;4.980;2023-02-19T06:04:19;23.25;;;17.60;;
10383;SDS011;5238;43.508;4.980;2023-02-19T06:06:46;23.30;;;17.33;;
10383;SDS011;5238;43.508;4.980;2023-02-19T06:09:13;21.58;;;17.02;;
10383;SDS011;5238;43.508;4.980;2023-02-19T06:11:42;21.92;;;18.00;;
10383;SDS011;5238;43.508;4.980;2023-02-19T06:14:11;23.88;;;16.90;;
10383;SDS011;5238;43.508;4.980;2023-02-19T06:16:39;18.15;;;15.93;;
10383;SDS011;5238;43.508;4.980;2023-02-19T06:19:10;20.98;;;16.63;;
10383;SDS011;5238;43.508;4.980;2023-02-19T06:21:37;21.00;;;17.38;;
10383;SDS011;5238;43.508;4.980;2023-02-19T06:24:07;21.58;;;18.10;;
10383;SDS011;5238;43.508;4.980;2023-02-19T06:26:35;21.13;;;15.60;;
10383;SDS011;5238;43.508;4.980;2023-02-19T06:29:03;19.08;;;15.93;;
10383;SDS011;5238;43.508;4.980;2023-02-19T06:31:30;19.70;;;16.15;;
10383;SDS011;5238;43.508;4.980;2023-02-19T06:33:57;20.17;;;16.10;;
10383;SDS011;5238;43.508;4.980;2023-02-19T06:36:25;19.17;;;16.60;;
10383;SDS011;5238;43.508;4.980;2023-02-19T06:38:52;16.27;;;14.52;;
10383;SDS011;5238;43.508;4.980;2023-02-19T06:41:19;18.70;;;14.63;;
10383;SDS011;5238;43.508;4.980;2023-02-19T06:43:46;18.65;;;15.52;;
10383;SDS011;5238;43.508;4.980;2023-02-19T06:46:13;17.27;;;14.55;;
10383;SDS011;5238;43.508;4.980;2023-02-19T06:48:41;17.13;;;14.80;;
10383;SDS011;5238;43.508;4.980;2023-02-19T06:51:10;17.75;;;15.07;;
10383;SDS011;5238;43.508;4.980;2023-02-19T06:53:39;17.15;;;14.88;;
10383;SDS011;5238;43.508;4.980;2023-02-19T06:56:18;17.65;;;14.35;;
10383;SDS011;5238;43.508;4.980;2023-02-19T06:58:48;16.55;;;13.88;;
10383;SDS011;5238;43.508;4.980;2023-02-19T07:01:19;17.67;;;13.82;;
10383;SDS011;5238;43.508;4.980;2023-02-19T07:03:46;15.10;;;13.55;;
10383;SDS011;5238;43.508;4.980;2023-02-19T07:06:16;15.85;;;13.50;;
10383;SDS011;5238;43.508;4.980;2023-02-19T07:08:47;19.40;;;14.85;;
10383;SDS011;5238;43.508;4.980;2023-02-19T07:11:14;13.82;;;12.35;;
10383;SDS011;5238;43.508;4.980;2023-02-19T07:13:42;16.75;;;13.35;;
10383;SDS011;5238;43.508;4.980;2023-02-19T07:16:11;15.70;;;13.98;;
10383;SDS011;5238;43.508;4.980;2023-02-19T07:18:38;17.20;;;14.85;;
10383;SDS011;5238;43.508;4.980;2023-02-19T07:21:07;14.55;;;13.07;;
10383;SDS011;5238;43.508;4.980;2023-02-19T07:23:35;13.73;;;12.32;;
10383;SDS011;5238;43.508;4.980;2023-02-19T07:26:07;16.08;;;14.35;;
10383;SDS011;5238;43.508;4.980;2023-02-19T07:28:38;14.48;;;13.00;;
10383;SDS011;5238;43.508;4.980;2023-02-19T07:31:05;14.90;;;13.38;;
10383;SDS011;5238;43.508;4.980;2023-02-19T07:33:34;14.07;;;11.98;;
10383;SDS011;5238;43.508;4.980;2023-02-19T07:36:01;12.65;;;11.27;;
10383;SDS011;5238;43.508;4.980;2023-02-19T07:38:28;13.70;;;11.40;;
10383;SDS011;5238;43.508;4.980;2023-02-19T07:40:55;14.75;;;13.35;;
10383;SDS011;5238;43.508;4.980;2023-02-19T07:43:27;14.68;;;11.27;;
10383;SDS011;5238;43.508;4.980;2023-02-19T07:45:56;16.60;;;12.65;;
10383;SDS011;5238;43.508;4.980;2023-02-19T07:48:30;18.60;;;15.00;;
10383;SDS011;5238;43.508;4.980;2023-02-19T07:50:58;13.27;;;10.95;;
10383;SDS011;5238;43.508;4.980;2023-02-19T07:53:30;9.05;;;8.25;;
10383;SDS011;5238;43.508;4.980;2023-02-19T07:55:58;9.13;;;5.68;;
10383;SDS011;5238;43.508;4.980;2023-02-19T07:58:28;6.32;;;5.72;;
10383;SDS011;5238;43.508;4.980;2023-02-19T08:00:56;7.40;;;5.47;;
10383;SDS011;5238;43.508;4.980;2023-02-19T08:03:23;5.72;;;5.13;;
10383;SDS011;5238;43.508;4.980;2023-02-19T08:05:49;6.68;;;6.07;;
10383;SDS011;5238;43.508;4.980;2023-02-19T08:08:19;5.10;;;4.65;;
10383;SDS011;5238;43.508;4.980;2023-02-19T08:10:46;6.53;;;4.90;;
10383;SDS011;5238;43.508;4.980;2023-02-19T08:13:34;5.55;;;4.50;;
10383;SDS011;5238;43.508;4.980;2023-02-19T08:16:08;4.75;;;4.35;;
10383;SDS011;5238;43.508;4.980;2023-02-19T08:18:37;4.70;;;4.40;;
10383;SDS011;5238;43.508;4.980;2023-02-19T08:21:04;3.70;;;2.40;;
10383;SDS011;5238;43.508;4.980;2023-02-19T08:23:32;3.40;;;3.10;;
10383;SDS011;5238;43.508;4.980;2023-02-19T08:26:01;3.17;;;2.97;;
10383;SDS011;5238;43.508;4.980;2023-02-19T08:28:29;3.30;;;3.00;;
10383;SDS011;5238;43.508;4.980;2023-02-19T08:31:02;4.22;;;3.92;;
10383;SDS011;5238;43.508;4.980;2023-02-19T08:33:34;2.83;;;2.63;;
10383;SDS011;5238;43.508;4.980;2023-02-19T08:36:01;3.17;;;2.70;;
10383;SDS011;5238;43.508;4.980;2023-02-19T08:38:33;3.03;;;2.83;;
10383;SDS011;5238;43.508;4.980;2023-02-19T08:41:05;3.33;;;2.90;;
10383;SDS011;5238;43.508;4.980;2023-02-19T08:43:33;4.72;;;4.35;;
10383;SDS011;5238;43.508;4.980;2023-02-19T08:46:02;2.97;;;2.78;;
10383;SDS011;5238;43.508;4.980;2023-02-19T08:48:29;3.30;;;3.10;;
10383;SDS011;5238;43.508;4.980;2023-02-19T08:50:57;4.00;;;3.22;;
10383;SDS011;5238;43.508;4.980;2023-02-19T08:53:26;4.97;;;4.57;;
10383;SDS011;5238;43.508;4.980;2023-02-19T08:55:53;2.40;;;2.20;;
10383;SDS011;5238;43.508;4.980;2023-02-19T08:58:20;3.88;;;3.58;;
10383;SDS011;5238;43.508;4.980;2023-02-19T09:00:50;3.55;;;3.17;;
10383;SDS011;5238;43.508;4.980;2023-02-19T09:03:18;3.50;;;3.20;;
10383;SDS011;5238;43.508;4.980;2023-02-19T09:05:47;3.47;;;3.03;;
10383;SDS011;5238;43.508;4.980;2023-02-19T09:08:16;3.08;;;2.85;;
10383;SDS011;5238;43.508;4.980;2023-02-19T09:10:43;3.78;;;3.00;;
10383;SDS011;5238;43.508;4.980;2023-02-19T09:13:10;3.97;;;3.58;;
10383;SDS011;5238;43.508;4.980;2023-02-19T09:15:37;3.38;;;3.08;;
10383;SDS011;5238;43.508;4.980;2023-02-19T09:18:04;3.70;;;3.40;;
10383;SDS011;5238;43.508;4.980;2023-02-19T09:20:33;3.60;;;3.13;;
10383;SDS011;5238;43.508;4.980;2023-02-19T09:23:01;4.32;;;3.92;;
10383;SDS011;5238;43.508;4.980;2023-02-19T09:25:28;3.22;;;2.88;;
10383;SDS011;5238;43.508;4.980;2023-02-19T09:27:55;3.53;;;3.20;;
10383;SDS011;5238;43.508;4.980;2023-02-19T09:30:22;4.55;;;3.20;;
10383;SDS011;5238;43.508;4.980;2023-02-19T09:32:49;4.05;;;3.60;;
10383;SDS011;5238;43.508;4.980;2023-02-19T09:35:17;6.03;;;2.92;;
10383;SDS011;5238;43.508;4.980;2023-02-19T09:37:46;4.85;;;4.13;;
10383;SDS011;5238;43.508;4.980;2023-02-19T09:40:13;18.55;;;4.20;;
10383;SDS011;5238;43.508;4.980;2023-02-19T09:42:45;3.70;;;3.35;;
10383;SDS011;5238;43.508;4.980;2023-02-19T09:45:14;5.85;;;3.60;;
10383;SDS011;5238;43.508;4.980;2023-02-19T09:47:49;3.30;;;3.00;;
10383;SDS011;5238;43.508;4.980;2023-02-19T09:50:19;6.85;;;3.88;;
10383;SDS011;5238;43.508;4.980;2023-02-19T09:52:52;4.50;;;3.20;;
10383;SDS011;5238;43.508;4.980;2023-02-19T09:55:24;4.40;;;3.45;;
10383;SDS011;5238;43.508;4.980;2023-02-19T09:57:55;10.05;;;3.67;;
10383;SDS011;5238;43.508;4.980;2023-02-19T10:00:28;3.35;;;3.05;;
10383;SDS011;5238;43.508;4.980;2023-02-19T10:02:59;6.43;;;4.63;;
10383;SDS011;5238;43.508;4.980;2023-02-19T10:05:31;5.03;;;3.13;;
10383;SDS011;5238;43.508;4.980;2023-02-19T10:08:03;5.32;;;3.53;;
10383;SDS011;5238;43.508;4.980;2023-02-19T10:10:44;4.22;;;3.85;;
10383;SDS011;5238;43.508;4.980;2023-02-19T10:13:14;7.00;;;3.72;;
10383;SDS011;5238;43.508;4.980;2023-02-19T10:15:46;3.70;;;3.40;;
10383;SDS011;5238;43.508;4.980;2023-02-19T10:18:21;3.47;;;3.28;;
10383;SDS011;5238;43.508;4.980;2023-02-19T10:20:50;3.60;;;3.30;;
10383;SDS011;5238;43.508;4.980;2023-02-19T10:23:20;3.10;;;2.90;;
10383;SDS011;5238;43.508;4.980;2023-02-19T10:28:19;3.65;;;2.15;;
10383;SDS011;5238;43.508;4.980;2023-02-19T10:30:50;3.70;;;2.25;;
10383;SDS011;5238;43.508;4.980;2023-02-19T10:33:18;2.22;;;2.03;;
10383;SDS011;5238;43.508;4.980;2023-02-19T10:35:53;4.18;;;3.28;;
10383;SDS011;5238;43.508;4.980;2023-02-19T10:38:24;5.40;;;3.10;;
10383;SDS011;5238;43.508;4.980;2023-02-19T10:41:06;6.03;;;2.40;;
10383;SDS011;5238;43.508;4.980;2023-02-19T10:43:51;3.05;;;2.40;;
10383;SDS011;5238;43.508;4.980;2023-02-19T10:46:39;3.28;;;2.50;;
10383;SDS011;5238;43.508;4.980;2023-02-19T10:49:16;3.30;;;2.22;;
10383;SDS011;5238;43.508;4.980;2023-02-19T10:51:52;4.60;;;3.20;;
10383;SDS011;5238;43.508;4.980;2023-02-19T10:54:25;2.30;;;2.10;;
10383;SDS011;5238;43.508;4.980;2023-02-19T10:57:14;3.15;;;2.08;;
10383;SDS011;5238;43.508;4.980;2023-02-19T11:00:05;2.35;;;2.15;;
10383;SDS011;5238;43.508;4.980;2023-02-19T11:05:58;3.35;;;2.55;;
10383;SDS011;5238;43.508;4.980;2023-02-19T11:08:44;2.50;;;2.30;;
10383;SDS011;5238;43.508;4.980;2023-02-19T11:11:28;4.10;;;2.40;;
10383;SDS011;5238;43.508;4.980;2023-02-19T11:14:13;5.50;;;2.42;;
10383;SDS011;5238;43.508;4.980;2023-02-19T11:16:56;1.80;;;1.70;;
10383;SDS011;5238;43.508;4.980;2023-02-19T11:19:29;2.03;;;1.83;;
10383;SDS011;5238;43.508;4.980;2023-02-19T11:22:00;3.50;;;1.52;;
10383;SDS011;5238;43.508;4.980;2023-02-19T11:24:30;1.63;;;1.40;;
10383;SDS011;5238;43.508;4.980;2023-02-19T11:27:06;3.03;;;1.40;;
10383;SDS011;5238;43.508;4.980;2023-02-19T11:29:43;3.78;;;1.40;;
10383;SDS011;5238;43.508;4.980;2023-02-19T11:32:23;1.38;;;1.00;;
10383;SDS011;5238;43.508;4.980;2023-02-19T11:34:51;4.15;;;1.63;;
10383;SDS011;5238;43.508;4.980;2023-02-19T11:37:39;2.15;;;1.13;;
10383;SDS011;5238;43.508;4.980;2023-02-19T11:40:20;7.32;;;1.80;;
10383;SDS011;5238;43.508;4.980;2023-02-19T11:42:56;3.00;;;1.40;;
10383;SDS011;5238;43.508;4.980;2023-02-19T11:45:33;3.03;;;1.40;;
10383;SDS011;5238;43.508;4.980;2023-02-19T11:48:11;6.05;;;1.80;;
10383;SDS011;5238;43.508;4.980;2023-02-19T11:50:53;3.53;;;1.42;;
10383;SDS011;5238;43.508;4.980;2023-02-19T11:53:41;2.00;;;1.35;;
10383;SDS011;5238;43.508;4.980;2023-02-19T11:56:16;6.85;;;1.48;;
10383;SDS011;5238;43.508;4.980;2023-02-19T11:59:00;2.88;;;1.10;;
10383;SDS011;5238;43.508;4.980;2023-02-19T12:01:50;2.50;;;2.00;;
10383;SDS011;5238;43.508;4.980;2023-02-19T12:10:36;1.95;;;1.30;;
10383;SDS011;5238;43.508;4.980;2023-02-19T12:13:14;3.08;;;1.23;;
10383;SDS011;5238;43.508;4.980;2023-02-19T12:15:56;1.25;;;1.15;;
10383;SDS011;5238;43.508;4.980;2023-02-19T12:18:42;2.03;;;1.00;;
10383;SDS011;5238;43.508;4.980;2023-02-19T12:21:51;4.15;;;1.10;;
10383;SDS011;5238;43.508;4.980;2023-02-19T12:24:38;5.22;;;1.20;;
10383;SDS011;5238;43.508;4.980;2023-02-19T12:27:26;3.75;;;1.30;;
10383;SDS011;5238;43.508;4.980;2023-02-19T12:30:19;3.88;;;1.05;;
10383;SDS011;5238;43.508;4.980;2023-02-19T12:33:23;4.07;;;1.23;;
10383;SDS011;5238;43.508;4.980;2023-02-19T12:36:10;2.47;;;1.40;;
10383;SDS011;5238;43.508;4.980;2023-02-19T12:38:47;2.03;;;1.30;;
10383;SDS011;5238;43.508;4.980;2023-02-19T12:41:28;3.15;;;1.17;;
10383;SDS011;5238;43.508;4.980;2023-02-19T12:44:03;4.90;;;1.50;;
10383;SDS011;5238;43.508;4.980;2023-02-19T12:46:40;5.05;;;1.40;;
10383;SDS011;5238;43.508;4.980;2023-02-19T12:49:20;3.85;;;1.30;;
10383;SDS011;5238;43.508;4.980;2023-02-19T12:51:53;3.85;;;1.30;;
10383;SDS011;5238;43.508;4.980;2023-02-19T12:54:30;2.00;;;1.10;;
10383;SDS011;5238;43.508;4.980;2023-02-19T12:57:02;3.05;;;1.20;;
10383;SDS011;5238;43.508;4.980;2023-02-19T12:59:32;3.45;;;1.30;;
10383;SDS011;5238;43.508;4.980;2023-02-19T13:02:05;2.55;;;1.17;;
10383;SDS011;5238;43.508;4.980;2023-02-19T13:04:44;3.72;;;1.30;;
10383;SDS011;5238;43.508;4.980;2023-02-19T13:07:19;2.22;;;1.10;;
10383;SDS011;5238;43.508;4.980;2023-02-19T13:09:59;2.65;;;0.90;;
10383;SDS011;5238;43.508;4.980;2023-02-19T13:12:38;1.45;;;1.08;;
10383;SDS011;5238;43.508;4.980;2023-02-19T13:15:12;1.92;;;1.20;;
10383;SDS011;5238;43.508;4.980;2023-02-19T13:17:42;1.77;;;1.10;;
10383;SDS011;5238;43.508;4.980;2023-02-19T13:20:26;2.08;;;1.30;;
10383;SDS011;5238;43.508;4.980;2023-02-19T13:22:58;1.75;;;1.30;;
10383;SDS011;5238;43.508;4.980;2023-02-19T13:25:54;3.47;;;1.10;;
10383;SDS011;5238;43.508;4.980;2023-02-19T13:31:37;3.38;;;1.58;;
10383;SDS011;5238;43.508;4.980;2023-02-19T13:34:16;1.73;;;0.95;;
10383;SDS011;5238;43.508;4.980;2023-02-19T13:36:56;3.25;;;0.93;;
10383;SDS011;5238;43.508;4.980;2023-02-19T13:39:25;8.00;;;1.52;;
10383;SDS011;5238;43.508;4.980;2023-02-19T13:41:53;4.65;;;2.35;;
10383;SDS011;5238;43.508;4.980;2023-02-19T13:44:24;5.13;;;1.23;;
10383;SDS011;5238;43.508;4.980;2023-02-19T13:46:54;1.98;;;1.50;;
10383;SDS011;5238;43.508;4.980;2023-02-19T13:49:23;4.50;;;3.38;;
10383;SDS011;5238;43.508;4.980;2023-02-19T13:58:38;8.82;;;4.75;;
10383;SDS011;5238;43.508;4.980;2023-02-19T14:04:45;2.40;;;1.70;;
10383;SDS011;5238;43.508;4.980;2023-02-19T14:07:33;3.53;;;1.10;;
10383;SDS011;5238;43.508;4.980;2023-02-19T14:10:04;1.08;;;0.85;;
10383;SDS011;5238;43.508;4.980;2023-02-19T14:12:37;1.10;;;0.95;;
10383;SDS011;5238;43.508;4.980;2023-02-19T14:21:16;5.78;;;1.70;;
10383;SDS011;5238;43.508;4.980;2023-02-19T14:23:50;1.75;;;1.10;;
10383;SDS011;5238;43.508;4.980;2023-02-19T14:26:20;2.03;;;1.10;;
10383;SDS011;5238;43.508;4.980;2023-02-19T14:28:49;5.85;;;1.05;;
10383;SDS011;5238;43.508;4.980;2023-02-19T14:31:20;3.30;;;1.13;;
10383;SDS011;5238;43.508;4.980;2023-02-19T14:33:52;1.30;;;1.10;;
10383;SDS011;5238;43.508;4.980;2023-02-19T14:36:25;4.07;;;1.40;;
10383;SDS011;5238;43.508;4.980;2023-02-19T14:39:10;1.83;;;1.15;;
10383;SDS011;5238;43.508;4.980;2023-02-19T14:41:44;1.08;;;1.00;;
10383;SDS011;5238;43.508;4.980;2023-02-19T14:44:14;1.40;;;1.10;;
10383;SDS011;5238;43.508;4.980;2023-02-19T14:46:47;1.65;;;1.10;;
10383;SDS011;5238;43.508;4.980;2023-02-19T14:49:25;1.30;;;1.20;;
10383;SDS011;5238;43.508;4.980;2023-02-19T14:51:57;3.05;;;1.10;;
10383;SDS011;5238;43.508;4.980;2023-02-19T14:54:32;2.30;;;0.90;;
10383;SDS011;5238;43.508;4.980;2023-02-19T14:57:11;1.15;;;1.02;;
10383;SDS011;5238;43.508;4.980;2023-02-19T14:59:50;2.88;;;1.33;;
10383;SDS011;5238;43.508;4.980;2023-02-19T15:02:19;1.20;;;1.10;;
10383;SDS011;5238;43.508;4.980;2023-02-19T15:04:48;2.33;;;1.55;;
10383;SDS011;5238;43.508;4.980;2023-02-19T15:07:16;4.07;;;1.40;;
10383;SDS011;5238;43.508;4.980;2023-02-19T15:09:48;1.25;;;1.10;;
10383;SDS011;5238;43.508;4.980;2023-02-19T15:12:19;1.98;;;1.17;;
10383;SDS011;5238;43.508;4.980;2023-02-19T15:14:48;4.32;;;1.38;;
10383;SDS011;5238;43.508;4.980;2023-02-19T15:17:22;1.98;;;1.40;;
10383;SDS011;5238;43.508;4.980;2023-02-19T15:19:52;3.00;;;1.40;;
10383;SDS011;5238;43.508;4.980;2023-02-19T15:22:21;1.10;;;1.00;;
10383;SDS011;5238;43.508;4.980;2023-02-19T15:24:52;1.20;;;1.10;;
10383;SDS011;5238;43.508;4.980;2023-02-19T15:27:22;2.28;;;1.40;;
10383;SDS011;5238;43.508;4.980;2023-02-19T15:29:50;1.20;;;1.10;;
10383;SDS011;5238;43.508;4.980;2023-02-19T15:32:32;3.13;;;1.40;;
10383;SDS011;5238;43.508;4.980;2023-02-19T15:35:17;1.77;;;1.10;;
10383;SDS011;5238;43.508;4.980;2023-02-19T15:37:48;2.50;;;1.67;;
10383;SDS011;5238;43.508;4.980;2023-02-19T15:40:15;2.05;;;1.80;;
10383;SDS011;5238;43.508;4.980;2023-02-19T15:42:46;2.58;;;1.70;;
10383;SDS011;5238;43.508;4.980;2023-02-19T15:45:15;6.72;;;3.28;;
10383;SDS011;5238;43.508;4.980;2023-02-19T15:48:05;2.80;;;1.85;;
10383;SDS011;5238;43.508;4.980;2023-02-19T15:50:35;1.80;;;1.52;;